createdAt,value
2019-05-29T00:01:56.324Z,20.18
2019-05-29T00:04:24.226Z,20.16
2019-05-29T00:06:51.957Z,20.15
2019-05-29T00:09:19.780Z,20.10
2019-05-29T00:11:47.483Z,20.07
2019-05-29T00:14:22.745Z,20.11
2019-05-29T00:16:44.721Z,20.13
2019-05-29T00:19:12.774Z,20.04
2019-05-29T00:21:40.517Z,20.05
2019-05-29T00:24:12.483Z,19.94
2019-05-29T00:26:40.260Z,19.97
2019-05-29T00:29:08.006Z,19.92
2019-05-29T00:31:35.731Z,19.91
2019-05-29T00:34:11.798Z,19.86
2019-05-29T00:36:39.588Z,19.86
2019-05-29T00:39:08.540Z,19.89
2019-05-29T00:41:37.286Z,19.87
2019-05-29T00:44:05.024Z,19.77
2019-05-29T00:46:32.937Z,19.81
2019-05-29T00:49:00.689Z,19.84
2019-05-29T00:51:28.519Z,20.02
2019-05-29T00:53:56.366Z,19.95
2019-05-29T00:56:24.223Z,19.76
2019-05-29T00:58:51.982Z,19.83
2019-05-29T01:01:20.131Z,19.90
2019-05-29T01:03:47.973Z,19.82
2019-05-29T01:06:16.066Z,19.72
2019-05-29T01:08:43.880Z,19.82
2019-05-29T01:11:14.691Z,19.73
2019-05-29T01:13:46.997Z,19.77
2019-05-29T01:16:11.935Z,19.71
2019-05-29T01:18:39.716Z,19.74
2019-05-29T01:21:07.470Z,19.63
2019-05-29T01:23:35.335Z,19.58
2019-05-29T01:26:03.086Z,19.58
2019-05-29T01:28:31.188Z,19.48
2019-05-29T01:30:58.946Z,19.49
2019-05-29T01:33:26.683Z,19.49
2019-05-29T01:35:54.452Z,19.28
2019-05-29T01:38:23.389Z,19.41
2019-05-29T01:40:51.251Z,19.43
2019-05-29T01:43:19.322Z,19.41
2019-05-29T01:45:47.162Z,19.38
2019-05-29T01:48:15.406Z,19.28
2019-05-29T01:50:43.232Z,19.29
2019-05-29T01:53:19.845Z,19.24
2019-05-29T01:55:47.631Z,19.37
2019-05-29T01:58:15.676Z,19.35
2019-05-29T02:00:43.514Z,19.07
2019-05-29T02:03:11.233Z,19.20
2019-05-29T02:05:38.991Z,19.24
2019-05-29T02:08:06.975Z,19.24
2019-05-29T02:10:34.685Z,19.25
2019-05-29T02:13:02.399Z,19.22
2019-05-29T02:15:33.834Z,19.15
2019-05-29T02:17:59.648Z,19.14
2019-05-29T02:20:27.367Z,19.09
2019-05-29T02:22:55.082Z,19.14
2019-05-29T02:25:22.820Z,19.08
2019-05-29T02:27:50.584Z,18.82
2019-05-29T02:30:20.337Z,19.11
2019-05-29T02:32:55.398Z,19.10
2019-05-29T02:35:24.766Z,19.16
2019-05-29T02:37:52.896Z,19.07
2019-05-29T02:40:21.338Z,19.17
2019-05-29T02:42:50.180Z,19.25
2019-05-29T02:45:19.453Z,19.19
2019-05-29T02:47:47.419Z,19.08
2019-05-29T02:50:15.238Z,19.13
2019-05-29T02:52:43.239Z,19.22
2019-05-29T02:55:10.975Z,19.15
2019-05-29T02:57:38.730Z,19.16
2019-05-29T03:00:08.285Z,19.02
2019-05-29T03:02:36.326Z,19.21
2019-05-29T03:05:23.741Z,19.06
2019-05-29T03:07:56.663Z,19.06
2019-05-29T03:10:26.588Z,19.04
2019-05-29T03:12:54.456Z,19.04
2019-05-29T03:15:23.521Z,19.00
2019-05-29T03:17:51.807Z,18.98
2019-05-29T03:20:19.532Z,19.02
2019-05-29T03:22:47.306Z,19.01
2019-05-29T03:25:15.081Z,19.04
2019-05-29T03:27:42.827Z,19.04
2019-05-29T03:30:10.677Z,19.08
2019-05-29T03:32:46.725Z,18.99
2019-05-29T03:35:28.195Z,18.97
2019-05-29T03:37:58.645Z,19.00
2019-05-29T03:40:24.331Z,18.98
2019-05-29T03:42:52.060Z,18.97
2019-05-29T03:45:19.795Z,19.01
2019-05-29T03:47:47.523Z,19.04
2019-05-29T03:50:15.978Z,18.98
2019-05-29T03:52:43.985Z,19.03
2019-05-29T03:55:12.290Z,19.01
2019-05-29T03:57:40.077Z,19.02
2019-05-29T04:00:07.838Z,18.97
2019-05-29T04:02:37.900Z,18.99
2019-05-29T04:05:05.639Z,19.02
2019-05-29T04:07:48.139Z,19.04
2019-05-29T04:10:10.078Z,19.29
2019-05-29T04:12:38.246Z,19.20
2019-05-29T04:15:06.414Z,19.22
2019-05-29T04:17:35.492Z,19.42
2019-05-29T04:20:03.419Z,19.44
2019-05-29T04:22:34.387Z,19.55
2019-05-29T04:25:03.226Z,19.64
2019-05-29T04:27:31.966Z,19.42
2019-05-29T04:29:59.895Z,19.50
2019-05-29T04:32:28.119Z,19.52
2019-05-29T04:34:56.040Z,19.58
2019-05-29T04:37:23.779Z,19.72
2019-05-29T04:39:51.496Z,19.62
2019-05-29T04:42:19.251Z,19.66
2019-05-29T04:45:10.956Z,19.57
2019-05-29T04:47:35.174Z,19.55
2019-05-29T04:50:03.082Z,19.54
2019-05-29T04:52:31.369Z,19.81
2019-05-29T04:54:59.295Z,19.61
2019-05-29T04:57:27.145Z,19.76
2019-05-29T04:59:54.911Z,19.72
2019-05-29T05:02:22.635Z,19.61
2019-05-29T05:04:50.385Z,19.58
2019-05-29T05:07:18.146Z,19.62
2019-05-29T05:09:45.862Z,19.67
2019-05-29T05:12:13.606Z,19.47
2019-05-29T05:14:41.350Z,19.37
2019-05-29T05:17:23.301Z,19.59
2019-05-29T05:19:47.477Z,19.49
2019-05-29T05:22:15.275Z,19.54
2019-05-29T05:24:44.157Z,19.31
2019-05-29T05:27:12.067Z,19.45
2019-05-29T05:29:40.497Z,19.40
2019-05-29T05:32:08.380Z,19.40
2019-05-29T05:34:40.976Z,19.42
2019-05-29T05:37:06.256Z,19.49
2019-05-29T05:39:35.181Z,19.53
2019-05-29T05:42:03.098Z,19.40
2019-05-29T05:44:30.890Z,19.51
2019-05-29T05:46:58.658Z,19.42
2019-05-29T05:49:26.406Z,19.55
2019-05-29T05:51:54.128Z,19.26
2019-05-29T05:54:21.974Z,19.22
2019-05-29T05:56:54.634Z,19.26
2019-05-29T05:59:22.387Z,19.17
2019-05-29T06:01:50.124Z,18.92
2019-05-29T06:04:17.877Z,18.97
2019-05-29T06:06:46.471Z,19.13
2019-05-29T06:09:14.358Z,19.17
2019-05-29T06:11:42.548Z,18.88
2019-05-29T06:14:10.438Z,19.05
2019-05-29T06:16:38.628Z,18.83
2019-05-29T06:19:06.450Z,18.69
2019-05-29T06:21:34.648Z,18.79
2019-05-29T06:24:02.382Z,18.82
2019-05-29T06:26:30.097Z,18.87
2019-05-29T06:28:57.852Z,19.01
2019-05-29T06:31:27.443Z,18.85
2019-05-29T06:34:13.349Z,18.89
2019-05-29T06:36:41.599Z,19.10
2019-05-29T06:39:10.591Z,19.24
2019-05-29T06:41:38.324Z,19.15
2019-05-29T06:44:06.105Z,19.17
2019-05-29T06:46:34.374Z,19.13
2019-05-29T06:49:02.225Z,19.06
2019-05-29T06:51:30.015Z,19.14
2019-05-29T06:53:57.707Z,19.18
2019-05-29T06:56:25.414Z,19.11
2019-05-29T06:58:53.156Z,19.05
2019-05-29T07:01:20.921Z,19.21
2019-05-29T07:03:48.735Z,19.26
2019-05-29T07:06:23.460Z,19.11
2019-05-29T07:08:51.177Z,19.18
2019-05-29T07:11:18.910Z,19.06
2019-05-29T07:13:49.710Z,19.10
2019-05-29T07:16:16.047Z,19.08
2019-05-29T07:19:20.588Z,19.06
2019-05-29T07:21:13.275Z,19.29
2019-05-29T07:23:41.320Z,19.13
2019-05-29T07:26:09.156Z,19.26
2019-05-29T07:28:37.252Z,19.26
2019-05-29T07:31:06.473Z,19.28
2019-05-29T07:33:34.229Z,19.51
2019-05-29T07:36:01.936Z,19.40
2019-05-29T07:38:29.679Z,19.37
2019-05-29T07:40:57.401Z,19.54
2019-05-29T07:43:28.846Z,19.63
2019-05-29T07:45:58.127Z,19.62
2019-05-29T07:48:25.908Z,19.59
2019-05-29T07:51:06.240Z,19.69
2019-05-29T07:53:23.075Z,19.68
2019-05-29T07:55:50.793Z,19.69
2019-05-29T07:58:18.522Z,19.75
2019-05-29T08:01:05.073Z,19.80
2019-05-29T08:03:15.995Z,19.84
2019-05-29T08:05:47.775Z,19.86
2019-05-29T08:08:13.163Z,19.91
2019-05-29T08:10:41.789Z,20.00
2019-05-29T08:13:09.567Z,19.96
2019-05-29T08:15:51.988Z,20.00
2019-05-29T08:18:08.412Z,20.03
2019-05-29T08:20:41.919Z,19.94
2019-05-29T08:23:09.944Z,19.99
2019-05-29T08:25:37.694Z,19.89
2019-05-29T08:28:05.516Z,19.85
2019-05-29T08:30:33.230Z,19.86
2019-05-29T08:33:00.990Z,20.08
2019-05-29T08:35:28.751Z,19.99
2019-05-29T08:37:56.604Z,19.99
2019-05-29T08:40:24.407Z,20.13
2019-05-29T08:42:52.155Z,20.21
2019-05-29T08:45:19.969Z,20.28
2019-05-29T08:47:47.811Z,20.28
2019-05-29T08:50:18.552Z,20.15
2019-05-29T08:52:45.986Z,20.15
2019-05-29T08:55:14.047Z,20.16
2019-05-29T08:57:52.413Z,20.19
2019-05-29T09:00:20.243Z,20.23
2019-05-29T09:02:49.167Z,20.16
2019-05-29T09:05:17.186Z,20.18
2019-05-29T09:07:46.420Z,20.24
2019-05-29T09:10:14.389Z,20.27
2019-05-29T09:12:45.928Z,20.25
2019-05-29T09:15:11.576Z,20.22
2019-05-29T09:17:39.369Z,20.31
2019-05-29T09:20:07.195Z,20.32
2019-05-29T09:22:35.010Z,20.40
2019-05-29T09:25:02.786Z,20.34
2019-05-29T09:27:30.525Z,20.36
2019-05-29T09:29:58.322Z,20.35
2019-05-29T09:32:49.360Z,20.39
2019-05-29T09:35:02.424Z,20.42
2019-05-29T09:37:30.158Z,20.52
2019-05-29T09:39:57.880Z,20.64
2019-05-29T09:42:25.647Z,20.52
2019-05-29T09:44:53.379Z,20.50
2019-05-29T09:47:22.230Z,20.48
2019-05-29T09:49:50.022Z,20.79
2019-05-29T09:52:17.767Z,20.62
2019-05-29T09:54:45.483Z,20.75
2019-05-29T09:57:15.333Z,20.67
2019-05-29T09:59:42.679Z,20.88
2019-05-29T10:02:10.399Z,20.78
2019-05-29T10:04:38.149Z,20.73
2019-05-29T10:07:05.884Z,20.73
2019-05-29T10:09:42.258Z,20.70
2019-05-29T10:12:09.969Z,20.66
2019-05-29T10:14:37.723Z,20.72
2019-05-29T10:17:11.824Z,20.70
2019-05-29T10:19:34.888Z,20.68
2019-05-29T10:22:03.918Z,20.75
2019-05-29T10:24:32.581Z,20.83
2019-05-29T10:27:01.610Z,20.80
2019-05-29T10:29:30.211Z,20.80
2019-05-29T10:31:57.957Z,20.81
2019-05-29T10:34:25.663Z,20.78
2019-05-29T10:36:54.758Z,20.94
2019-05-29T10:39:22.720Z,20.90
2019-05-29T10:41:51.508Z,20.80
2019-05-29T10:44:24.032Z,20.69
2019-05-29T10:46:54.080Z,20.77
2019-05-29T10:49:21.291Z,20.85
2019-05-29T10:52:09.072Z,21.01
2019-05-29T10:54:18.509Z,21.12
2019-05-29T10:56:46.882Z,21.01
2019-05-29T10:59:14.732Z,20.41
2019-05-29T11:01:42.487Z,20.87
2019-05-29T11:04:10.245Z,20.89
2019-05-29T11:06:40.751Z,20.95
2019-05-29T11:09:07.438Z,20.95
2019-05-29T11:11:35.173Z,20.98
2019-05-29T11:14:02.911Z,21.01
2019-05-29T11:16:30.644Z,21.03
2019-05-29T11:18:58.543Z,21.06
2019-05-29T11:21:30.040Z,21.03
2019-05-29T11:23:59.418Z,21.09
2019-05-29T11:26:27.141Z,21.11
2019-05-29T11:28:54.856Z,21.21
2019-05-29T11:31:22.611Z,21.13
2019-05-29T11:33:50.763Z,21.09
2019-05-29T11:36:18.526Z,21.15
2019-05-29T11:38:46.333Z,21.20
2019-05-29T11:41:25.585Z,21.17
2019-05-29T11:43:43.518Z,21.22
2019-05-29T11:46:11.259Z,21.22
2019-05-29T11:48:39.005Z,21.31
2019-05-29T11:51:06.722Z,21.32
2019-05-29T11:53:34.467Z,21.38
2019-05-29T11:56:02.241Z,21.41
2019-05-29T11:58:31.688Z,21.35
2019-05-29T12:01:06.968Z,21.35
2019-05-29T12:03:34.770Z,21.58
2019-05-29T12:06:03.317Z,21.47
2019-05-29T12:08:31.098Z,21.43
2019-05-29T12:10:59.456Z,21.42
2019-05-29T12:13:27.414Z,21.45
2019-05-29T12:15:55.956Z,21.49
2019-05-29T12:18:24.659Z,21.50
2019-05-29T12:20:53.897Z,21.55
2019-05-29T12:23:26.358Z,21.56
2019-05-29T12:26:10.298Z,21.66
2019-05-29T12:28:20.813Z,21.67
2019-05-29T12:30:48.552Z,21.74
2019-05-29T12:33:16.275Z,21.87
2019-05-29T12:35:44.022Z,21.91
2019-05-29T12:38:22.418Z,21.93
2019-05-29T12:40:50.310Z,21.87
2019-05-29T12:43:27.147Z,21.83
2019-05-29T12:45:47.570Z,21.86
2019-05-29T12:48:16.163Z,21.91
2019-05-29T12:50:44.424Z,21.91
2019-05-29T12:53:28.973Z,21.95
2019-05-29T12:55:41.595Z,21.88
2019-05-29T12:58:09.688Z,21.92
2019-05-29T13:00:37.409Z,21.89
2019-05-29T13:03:05.376Z,21.80
2019-05-29T13:05:33.139Z,21.84
2019-05-29T13:08:00.943Z,21.87
2019-05-29T13:10:30.919Z,21.93
2019-05-29T13:13:10.909Z,21.98
2019-05-29T13:15:36.856Z,21.95
2019-05-29T13:18:09.487Z,21.90
2019-05-29T13:20:34.419Z,21.87
2019-05-29T13:23:03.588Z,21.94
2019-05-29T13:25:31.635Z,22.04
2019-05-29T13:28:00.851Z,22.07
2019-05-29T13:30:29.108Z,22.06
2019-05-29T13:33:02.299Z,22.15
2019-05-29T13:35:26.624Z,22.05
2019-05-29T13:37:54.534Z,22.10
2019-05-29T13:40:22.320Z,22.19
2019-05-29T13:42:50.299Z,22.21
2019-05-29T13:48:07.552Z,22.03
2019-05-29T13:50:35.981Z,22.15
2019-05-29T13:53:03.790Z,22.18
2019-05-29T13:55:31.622Z,22.02
2019-05-29T13:57:59.574Z,22.12
2019-05-29T14:00:35.175Z,22.16
2019-05-29T14:02:58.231Z,22.17
2019-05-29T14:05:26.223Z,22.15
2019-05-29T14:07:53.993Z,22.11
2019-05-29T14:10:21.720Z,22.07
2019-05-29T14:12:49.460Z,22.06
2019-05-29T14:15:34.828Z,22.19
2019-05-29T14:18:02.931Z,22.18
2019-05-29T14:20:30.811Z,22.18
2019-05-29T14:22:58.530Z,22.25
2019-05-29T14:25:26.256Z,22.21
2019-05-29T14:27:54.051Z,22.23
2019-05-29T14:30:21.791Z,22.18
2019-05-29T14:32:49.529Z,22.19
2019-05-29T14:35:17.230Z,22.25
2019-05-29T14:37:44.956Z,22.28
2019-05-29T14:40:12.727Z,22.28
2019-05-29T14:42:40.452Z,22.28
2019-05-29T14:45:08.527Z,22.32
2019-05-29T14:47:46.639Z,22.40
2019-05-29T14:50:11.237Z,22.22
2019-05-29T14:52:40.361Z,22.33
2019-05-29T14:55:09.025Z,22.39
2019-05-29T14:57:37.547Z,22.24
2019-05-29T15:00:16.367Z,22.17
2019-05-29T15:02:34.818Z,22.38
2019-05-29T15:05:03.699Z,22.43
2019-05-29T15:07:31.548Z,22.52
2019-05-29T15:10:00.282Z,22.50
2019-05-29T15:12:28.027Z,22.48
2019-05-29T15:14:55.782Z,22.49
2019-05-29T15:17:23.503Z,22.53
2019-05-29T15:19:51.210Z,22.58
2019-05-29T15:31:48.041Z,22.63
2019-05-29T15:34:16.534Z,22.68
2019-05-29T15:40:17.139Z,22.62
2019-05-29T15:43:39.879Z,22.56
2019-05-29T15:46:17.691Z,22.55
2019-05-29T15:51:53.850Z,22.76
2019-05-29T15:54:24.765Z,22.73
2019-05-29T15:57:01.206Z,22.83
2019-05-29T15:59:29.262Z,22.89
2019-05-29T16:02:25.635Z,22.92
2019-05-29T16:22:12.225Z,22.82
2019-05-29T16:24:54.889Z,23.17
2019-05-29T16:27:22.797Z,23.17
2019-05-29T16:29:53.250Z,23.15
2019-05-29T16:39:40.237Z,23.15
2019-05-29T16:42:11.885Z,23.17
2019-05-29T16:51:14.658Z,23.19
2019-05-29T17:03:26.430Z,23.14
2019-05-29T17:05:56.964Z,22.91
2019-05-29T17:53:07.074Z,23.27
2019-05-29T17:55:59.489Z,23.33
2019-05-29T17:58:27.444Z,23.30
2019-05-29T18:04:52.734Z,23.31
2019-05-29T18:07:24.863Z,23.27
2019-05-29T18:10:27.203Z,23.27
2019-05-29T18:25:56.165Z,23.27
2019-05-29T18:28:24.164Z,23.28
2019-05-29T18:30:52.141Z,23.30
2019-05-29T18:43:13.208Z,23.31
2019-05-29T18:49:20.364Z,23.31
2019-05-29T18:51:51.227Z,23.30
2019-05-29T18:54:23.507Z,23.31
2019-05-29T18:57:13.810Z,23.28
2019-05-29T19:00:10.130Z,23.27
2019-05-29T19:03:09.561Z,23.27
2019-05-29T19:06:21.692Z,23.22
2019-05-29T19:12:49.920Z,22.20
2019-05-29T19:25:28.914Z,23.15
2019-05-29T19:27:56.964Z,23.12
2019-05-29T19:30:24.905Z,23.12
2019-05-29T19:35:49.132Z,23.09
2019-05-29T19:38:17.007Z,23.09
2019-05-29T19:40:44.818Z,23.07
2019-05-29T19:43:13.008Z,23.04
2019-05-29T19:45:40.785Z,23.06
2019-05-29T19:48:10.706Z,23.01
2019-05-29T19:51:25.215Z,23.04
2019-05-29T19:54:15.459Z,23.16
2019-05-29T19:57:49.837Z,23.19
2019-05-29T19:59:59.554Z,23.13
2019-05-29T20:02:28.469Z,22.97
2019-05-29T20:04:56.405Z,22.95
2019-05-29T20:08:39.946Z,22.99
2019-05-29T20:11:10.426Z,23.02
2019-05-29T20:30:12.311Z,23.00
2019-05-29T20:32:40.254Z,22.88
2019-05-29T20:35:08.096Z,22.93
2019-05-29T20:44:30.627Z,22.60
2019-05-29T20:47:03.979Z,22.67
2019-05-29T20:49:47.477Z,22.42
2019-05-29T20:52:20.778Z,22.21
2019-05-29T20:54:48.641Z,22.22
2019-05-29T20:57:26.229Z,22.14
2019-05-29T20:59:54.047Z,22.04
2019-05-29T21:11:50.242Z,21.98
2019-05-29T21:14:23.578Z,21.82
2019-05-29T21:16:51.392Z,21.79
2019-05-29T21:19:19.241Z,21.71
2019-05-29T21:21:53.027Z,21.66
2019-05-29T21:24:21.123Z,21.66
2019-05-29T21:27:08.329Z,21.57
2019-05-29T21:29:37.205Z,21.53
2019-05-29T21:32:14.907Z,21.50
2019-05-29T21:43:52.420Z,21.34
2019-05-29T21:46:20.564Z,21.23
2019-05-29T21:48:48.461Z,21.23
2019-05-29T21:51:16.238Z,21.27
2019-05-29T21:53:45.569Z,21.29
2019-05-29T21:56:28.962Z,21.20
2019-05-29T21:59:03.520Z,21.17
2019-05-29T22:14:53.352Z,20.88
2019-05-29T22:17:20.944Z,21.08
2019-05-29T22:19:50.765Z,20.96
2019-05-29T22:22:18.736Z,20.95
2019-05-29T22:24:49.342Z,20.92
2019-05-29T22:27:17.229Z,20.98
2019-05-29T22:29:45.094Z,20.94
2019-05-29T22:32:12.921Z,20.83
2019-05-29T22:35:17.255Z,20.93
2019-05-29T22:37:48.021Z,20.87
2019-05-29T22:40:20.816Z,20.70
2019-05-29T22:42:48.780Z,20.74
2019-05-29T22:45:16.708Z,20.63
2019-05-29T22:47:44.547Z,20.68
2019-05-29T22:50:14.190Z,20.68
2019-05-29T22:52:42.309Z,20.73
2019-05-29T22:55:10.164Z,20.57
2019-05-29T22:57:38.117Z,20.54
2019-05-29T23:00:05.994Z,20.50
2019-05-29T23:02:33.777Z,20.57
2019-05-29T23:05:03.641Z,20.60
2019-05-29T23:07:37.157Z,20.50
2019-05-29T23:10:05.511Z,20.55
2019-05-29T23:12:33.480Z,20.53
2019-05-29T23:15:02.652Z,20.55
2019-05-29T23:17:30.771Z,20.44
2019-05-29T23:19:58.689Z,20.33
2019-05-29T23:22:26.925Z,20.41
2019-05-29T23:24:54.902Z,20.37
2019-05-29T23:27:22.767Z,20.34
2019-05-29T23:29:50.672Z,20.33
2019-05-29T23:32:18.533Z,20.26
2019-05-29T23:34:46.321Z,20.31
2019-05-29T23:40:29.858Z,20.31
2019-05-29T23:42:57.711Z,20.24
2019-05-29T23:45:25.705Z,20.20
2019-05-29T23:51:22.328Z,20.10
2019-05-29T23:53:50.187Z,20.11
2019-05-29T23:56:18.068Z,20.03
2019-05-29T23:58:45.873Z,19.92
